Time,TemperatureF,DewpointF,PressureIn,WindDirection,WindDirectionDegrees,WindSpeedMPH,WindSpeedGustMPH,Humidity,HourlyPrecipIn,Conditions,Clouds,dailyrainin,SolarRadiationWatts/m^2,SoftwareType,DateUTC
2013-05-27 00:01:00,52.0,51.0,-100.00,South,189,7.0,14.0,97,0.00,,,0.00,0.000000,,2013-05-27 06:01:00,
2013-05-27 00:32:00,50.0,49.0,-100.00,NW,325,6.0,14.0,98,0.00,,,0.00,0.000000,,2013-05-27 06:32:00,
2013-05-27 00:42:00,50.0,49.0,-100.00,NW,325,6.0,14.0,98,0.00,,,0.00,0.000000,,2013-05-27 06:42:00,
2013-05-27 00:52:00,50.0,49.0,-100.00,NW,325,6.0,14.0,98,0.00,,,0.00,0.000000,,2013-05-27 06:52:00,
2013-05-27 01:02:00,50.0,49.0,-100.00,NW,325,6.0,14.0,98,0.00,,,0.00,0.000000,,2013-05-27 07:02:00,
2013-05-27 01:32:00,50.0,49.0,-100.00,North,8,7.0,15.0,98,0.00,,,0.00,0.000000,,2013-05-27 07:32:00,
2013-05-27 01:42:00,50.0,49.0,-100.00,North,8,7.0,15.0,98,0.00,,,0.00,0.000000,,2013-05-27 07:42:00,
2013-05-27 01:52:00,50.0,49.0,-100.00,North,8,7.0,15.0,98,0.00,,,0.00,0.000000,,2013-05-27 07:52:00,
2013-05-27 02:02:00,50.0,49.0,-100.00,North,8,7.0,15.0,98,0.00,,,0.00,0.000000,,2013-05-27 08:02:00,
2013-05-27 02:33:00,49.0,49.0,-100.00,NNE,16,4.0,15.0,99,0.00,,,0.00,0.000000,,2013-05-27 08:33:00,
2013-05-27 02:42:00,49.0,49.0,-100.00,NNE,16,4.0,15.0,99,0.00,,,0.00,0.000000,,2013-05-27 08:42:00,
2013-05-27 02:52:00,49.0,49.0,-100.00,NNE,16,4.0,15.0,99,0.00,,,0.00,0.000000,,2013-05-27 08:52:00,
2013-05-27 03:02:00,49.0,49.0,-100.00,NNE,16,4.0,15.0,99,0.00,,,0.00,0.000000,,2013-05-27 09:02:00,
2013-05-27 03:33:00,49.0,49.0,-100.00,ENE,78,2.0,7.0,100,0.00,,,0.00,0.000000,,2013-05-27 09:33:00,
2013-05-27 03:42:00,49.0,49.0,-100.00,ENE,78,2.0,7.0,100,0.00,,,0.00,0.000000,,2013-05-27 09:42:00,
2013-05-27 03:53:00,49.0,49.0,-100.00,ENE,78,2.0,7.0,100,0.00,,,0.00,0.000000,,2013-05-27 09:53:00,
2013-05-27 04:02:00,49.0,49.0,-100.00,ENE,78,2.0,7.0,100,0.00,,,0.00,0.000000,,2013-05-27 10:02:00,
2013-05-27 04:32:00,48.0,48.0,-100.00,South,180,4.0,8.0,100,0.00,,,0.00,0.000000,,2013-05-27 10:32:00,
2013-05-27 04:42:00,48.0,48.0,-100.00,South,180,4.0,8.0,100,0.00,,,0.00,0.000000,,2013-05-27 10:42:00,
2013-05-27 04:52:00,48.0,48.0,-100.00,South,180,4.0,8.0,100,0.00,,,0.00,0.000000,,2013-05-27 10:52:00,
2013-05-27 05:02:00,48.0,48.0,-100.00,South,180,4.0,8.0,100,0.00,,,0.00,0.000000,,2013-05-27 11:02:00,
2013-05-27 05:32:00,49.0,49.0,-100.00,SSE,159,6.0,11.0,100,0.00,,,0.00,0.000000,,2013-05-27 11:32:00,
2013-05-27 05:42:00,49.0,49.0,-100.00,SSE,159,6.0,11.0,100,0.00,,,0.00,0.000000,,2013-05-27 11:42:00,
2013-05-27 05:52:00,49.0,49.0,-100.00,SSE,159,6.0,11.0,100,0.00,,,0.00,0.000000,,2013-05-27 11:52:00,
2013-05-27 06:01:00,49.0,49.0,-100.00,SSE,159,6.0,11.0,100,0.00,,,0.00,0.000000,,2013-05-27 12:01:00,
2013-05-27 06:32:00,50.0,50.0,-100.00,SSE,166,6.0,10.0,100,0.00,,,0.00,7.000000,,2013-05-27 12:32:00,
2013-05-27 06:42:00,50.0,50.0,-100.00,SSE,166,6.0,10.0,100,0.00,,,0.00,7.000000,,2013-05-27 12:42:00,
2013-05-27 06:52:00,50.0,50.0,-100.00,SSE,166,6.0,10.0,100,0.00,,,0.00,7.000000,,2013-05-27 12:52:00,
2013-05-27 07:01:00,50.0,50.0,-100.00,SSE,166,6.0,10.0,100,0.00,,,0.00,7.000000,,2013-05-27 13:01:00,
2013-05-27 07:32:00,51.0,51.0,-100.00,NE,53,1.0,12.0,100,0.00,,,0.00,23.000000,,2013-05-27 13:32:00,
2013-05-27 07:42:00,51.0,51.0,-100.00,NE,53,1.0,12.0,100,0.00,,,0.00,23.000000,,2013-05-27 13:42:00,
2013-05-27 07:53:00,51.0,51.0,-100.00,NE,53,1.0,12.0,100,0.00,,,0.00,23.000000,,2013-05-27 13:53:00,
2013-05-27 08:02:00,51.0,51.0,-100.00,NE,53,1.0,12.0,100,0.00,,,0.00,23.000000,,2013-05-27 14:02:00,
2013-05-27 08:32:00,52.0,52.0,-100.00,SSE,167,4.0,7.0,100,0.00,,,0.00,42.000000,,2013-05-27 14:32:00,
2013-05-27 08:42:00,52.0,52.0,-100.00,SSE,167,4.0,7.0,100,0.00,,,0.00,42.000000,,2013-05-27 14:42:00,
2013-05-27 08:52:00,52.0,52.0,-100.00,SSE,167,4.0,7.0,100,0.00,,,0.00,42.000000,,2013-05-27 14:52:00,
2013-05-27 09:01:00,52.0,52.0,-100.00,SSE,167,4.0,7.0,100,0.00,,,0.00,42.000000,,2013-05-27 15:01:00,
2013-05-27 09:33:00,53.0,53.0,-100.00,South,170,5.0,9.0,100,0.00,,,0.00,124.000000,,2013-05-27 15:33:00,
2013-05-27 09:43:00,53.0,53.0,-100.00,South,170,5.0,9.0,100,0.00,,,0.00,124.000000,,2013-05-27 15:43:00,
2013-05-27 09:53:00,53.0,53.0,-100.00,South,170,5.0,9.0,100,0.00,,,0.00,124.000000,,2013-05-27 15:53:00,
2013-05-27 10:03:00,53.0,53.0,-100.00,South,170,5.0,9.0,100,0.00,,,0.00,124.000000,,2013-05-27 16:03:00,
2013-05-27 10:33:00,56.0,56.0,-100.00,South,186,7.0,15.0,100,0.00,,,0.00,297.000000,,2013-05-27 16:33:00,
2013-05-27 10:42:00,56.0,56.0,-100.00,South,186,7.0,15.0,100,0.00,,,0.00,297.000000,,2013-05-27 16:42:00,
2013-05-27 10:53:00,56.0,56.0,-100.00,South,186,7.0,15.0,100,0.00,,,0.00,297.000000,,2013-05-27 16:53:00,
2013-05-27 11:02:00,56.0,56.0,-100.00,South,186,7.0,15.0,100,0.00,,,0.00,297.000000,,2013-05-27 17:02:00,
2013-05-27 11:32:00,62.0,50.0,-100.00,South,182,12.0,19.0,65,0.00,,,0.00,642.000000,,2013-05-27 17:32:00,
2013-05-27 11:43:00,62.0,50.0,-100.00,South,182,12.0,19.0,65,0.00,,,0.00,642.000000,,2013-05-27 17:43:00,
2013-05-27 11:52:00,62.0,50.0,-100.00,South,182,12.0,19.0,65,0.00,,,0.00,642.000000,,2013-05-27 17:52:00,
2013-05-27 12:02:00,62.0,50.0,-100.00,South,182,12.0,19.0,65,0.00,,,0.00,642.000000,,2013-05-27 18:02:00,
2013-05-27 12:32:00,59.0,50.0,-100.00,SSW,209,9.0,18.0,72,0.01,,,0.01,223.000000,,2013-05-27 18:32:00,
2013-05-27 12:42:00,59.0,50.0,-100.00,SSW,209,9.0,18.0,72,0.01,,,0.01,223.000000,,2013-05-27 18:42:00,
2013-05-27 12:52:00,59.0,50.0,-100.00,SSW,209,9.0,18.0,72,0.01,,,0.01,223.000000,,2013-05-27 18:52:00,
2013-05-27 13:01:00,59.0,50.0,-100.00,SSW,209,9.0,18.0,72,0.01,,,0.01,223.000000,,2013-05-27 19:01:00,
2013-05-27 13:32:00,61.0,55.0,-100.00,SSW,209,11.0,19.0,81,0.08,,,0.09,463.000000,,2013-05-27 19:32:00,
2013-05-27 13:42:00,61.0,55.0,-100.00,SSW,209,11.0,19.0,81,0.08,,,0.09,463.000000,,2013-05-27 19:42:00,
2013-05-27 13:52:00,61.0,55.0,-100.00,SSW,209,11.0,19.0,81,0.08,,,0.09,463.000000,,2013-05-27 19:52:00,
2013-05-27 14:01:00,61.0,55.0,-100.00,SSW,209,11.0,19.0,81,0.08,,,0.09,463.000000,,2013-05-27 20:01:00,
2013-05-27 14:32:00,64.0,49.0,-100.00,WSW,244,7.0,17.0,59,0.00,,,0.09,836.000000,,2013-05-27 20:32:00,
2013-05-27 14:42:00,64.0,49.0,-100.00,WSW,244,7.0,17.0,59,0.00,,,0.09,836.000000,,2013-05-27 20:42:00,
2013-05-27 14:52:00,64.0,49.0,-100.00,WSW,244,7.0,17.0,59,0.00,,,0.09,836.000000,,2013-05-27 20:52:00,
2013-05-27 15:01:00,64.0,49.0,-100.00,WSW,244,7.0,17.0,59,0.00,,,0.09,836.000000,,2013-05-27 21:01:00,
2013-05-27 15:33:00,65.0,47.0,-100.00,SW,222,11.0,21.0,53,0.00,,,0.09,823.000000,,2013-05-27 21:33:00,
2013-05-27 15:43:00,65.0,47.0,-100.00,SW,222,11.0,21.0,53,0.00,,,0.09,823.000000,,2013-05-27 21:43:00,
2013-05-27 15:53:00,65.0,47.0,-100.00,SW,222,11.0,21.0,53,0.00,,,0.09,823.000000,,2013-05-27 21:53:00,
2013-05-27 16:02:00,65.0,47.0,-100.00,SW,222,11.0,21.0,53,0.00,,,0.09,823.000000,,2013-05-27 22:02:00,
2013-05-27 16:33:00,54.0,50.0,-100.00,North,350,6.0,18.0,85,0.00,,,0.09,273.000000,,2013-05-27 22:33:00,
2013-05-27 16:42:00,54.0,50.0,-100.00,North,350,6.0,18.0,85,0.00,,,0.09,273.000000,,2013-05-27 22:42:00,
2013-05-27 16:53:00,54.0,50.0,-100.00,North,350,6.0,18.0,85,0.00,,,0.09,273.000000,,2013-05-27 22:53:00,
2013-05-27 17:02:00,54.0,50.0,-100.00,North,350,6.0,18.0,85,0.00,,,0.09,273.000000,,2013-05-27 23:02:00,
2013-05-27 17:32:00,46.0,41.0,-100.00,NW,315,7.0,26.0,83,0.11,,,0.20,42.000000,,2013-05-27 23:32:00,
2013-05-27 17:42:00,46.0,41.0,-100.00,NW,315,7.0,26.0,83,0.11,,,0.20,42.000000,,2013-05-27 23:42:00,
2013-05-27 17:52:00,46.0,41.0,-100.00,NW,315,7.0,26.0,83,0.11,,,0.20,42.000000,,2013-05-27 23:52:00,
2013-05-27 18:01:00,46.0,41.0,-100.00,NW,315,7.0,26.0,83,0.11,,,0.20,42.000000,,2013-05-28 00:01:00,
2013-05-27 18:32:00,47.0,41.0,-100.00,NNW,332,4.0,19.0,81,0.09,,,0.29,7.000000,,2013-05-28 00:32:00,
2013-05-27 18:42:00,47.0,41.0,-100.00,NNW,332,4.0,19.0,81,0.09,,,0.29,7.000000,,2013-05-28 00:42:00,
2013-05-27 18:52:00,47.0,41.0,-100.00,NNW,332,4.0,19.0,81,0.09,,,0.29,7.000000,,2013-05-28 00:52:00,
2013-05-27 19:01:00,47.0,41.0,-100.00,NNW,332,4.0,19.0,81,0.09,,,0.29,7.000000,,2013-05-28 01:01:00,
2013-05-27 19:32:00,46.0,43.0,-100.00,NNW,332,7.0,24.0,88,0.00,,,0.29,27.000000,,2013-05-28 01:32:00,
2013-05-27 19:42:00,46.0,43.0,-100.00,NNW,332,7.0,24.0,88,0.00,,,0.29,27.000000,,2013-05-28 01:42:00,
2013-05-27 19:52:00,46.0,43.0,-100.00,NNW,332,7.0,24.0,88,0.00,,,0.29,27.000000,,2013-05-28 01:52:00,
2013-05-27 20:02:00,46.0,43.0,-100.00,NNW,332,7.0,24.0,88,0.00,,,0.29,27.000000,,2013-05-28 02:02:00,
2013-05-27 20:32:00,45.0,44.0,-100.00,NNW,345,5.0,14.0,96,0.00,,,0.29,57.000000,,2013-05-28 02:32:00,
2013-05-27 20:42:00,45.0,44.0,-100.00,NNW,345,5.0,14.0,96,0.00,,,0.29,57.000000,,2013-05-28 02:42:00,
2013-05-27 20:52:00,45.0,44.0,-100.00,NNW,345,5.0,14.0,96,0.00,,,0.29,57.000000,,2013-05-28 02:52:00,
2013-05-27 21:01:00,45.0,44.0,-100.00,NNW,345,5.0,14.0,96,0.00,,,0.29,57.000000,,2013-05-28 03:01:00,
2013-05-27 21:33:00,44.0,43.0,-100.00,NNW,329,7.0,17.0,98,0.00,,,0.29,9.000000,,2013-05-28 03:33:00,
2013-05-27 21:43:00,44.0,43.0,-100.00,NNW,329,7.0,17.0,98,0.00,,,0.29,9.000000,,2013-05-28 03:43:00,
2013-05-27 21:53:00,44.0,43.0,-100.00,NNW,329,7.0,17.0,98,0.00,,,0.29,9.000000,,2013-05-28 03:53:00,
2013-05-27 22:02:00,44.0,43.0,-100.00,NNW,329,7.0,17.0,98,0.00,,,0.29,9.000000,,2013-05-28 04:02:00,
2013-05-27 22:33:00,44.0,35.0,-100.00,NNW,328,11.0,20.0,71,0.00,,,0.29,0.000000,,2013-05-28 04:33:00,
2013-05-27 22:43:00,44.0,35.0,-100.00,NNW,328,11.0,20.0,71,0.00,,,0.29,0.000000,,2013-05-28 04:43:00,
2013-05-27 22:53:00,44.0,35.0,-100.00,NNW,328,11.0,20.0,71,0.00,,,0.29,0.000000,,2013-05-28 04:53:00,
2013-05-27 23:02:00,44.0,35.0,-100.00,NNW,328,11.0,20.0,71,0.00,,,0.29,0.000000,,2013-05-28 05:02:00,
2013-05-27 23:33:00,42.0,31.0,-100.00,NNW,334,10.0,22.0,64,0.00,,,0.29,0.000000,,2013-05-28 05:33:00,
2013-05-27 23:42:00,42.0,31.0,-100.00,NNW,334,10.0,22.0,64,0.00,,,0.29,0.000000,,2013-05-28 05:42:00,
2013-05-27 23:52:00,42.0,31.0,-100.00,NNW,334,10.0,22.0,64,0.00,,,0.29,0.000000,,2013-05-28 05:52:00,